sensor_id;sensor_type;location;lat;lon;timestamp;P1;durP1;ratioP1;P2;durP2;ratioP2
66384;SDS011;53426;55.872;37.462;2023-02-26T00:02:10;20.13;;;11.43;;
66384;SDS011;53426;55.872;37.462;2023-02-26T00:04:36;28.90;;;17.60;;
66384;SDS011;53426;55.872;37.462;2023-02-26T00:07:02;28.98;;;17.60;;
66384;SDS011;53426;55.872;37.462;2023-02-26T00:09:29;26.17;;;15.68;;
66384;SDS011;53426;55.872;37.462;2023-02-26T00:11:55;29.70;;;17.35;;
66384;SDS011;53426;55.872;37.462;2023-02-26T00:14:23;28.20;;;15.60;;
66384;SDS011;53426;55.872;37.462;2023-02-26T00:16:51;28.77;;;17.85;;
66384;SDS011;53426;55.872;37.462;2023-02-26T00:19:32;25.50;;;16.15;;
66384;SDS011;53426;55.872;37.462;2023-02-26T00:21:58;30.52;;;18.52;;
66384;SDS011;53426;55.872;37.462;2023-02-26T00:24:24;25.95;;;15.50;;
66384;SDS011;53426;55.872;37.462;2023-02-26T00:26:50;26.42;;;16.52;;
66384;SDS011;53426;55.872;37.462;2023-02-26T00:29:15;33.22;;;17.45;;
66384;SDS011;53426;55.872;37.462;2023-02-26T00:31:42;28.50;;;17.08;;
66384;SDS011;53426;55.872;37.462;2023-02-26T00:34:10;19.42;;;10.43;;
66384;SDS011;53426;55.872;37.462;2023-02-26T00:42:15;29.30;;;16.10;;
66384;SDS011;53426;55.872;37.462;2023-02-26T00:44:41;27.92;;;16.73;;
66384;SDS011;53426;55.872;37.462;2023-02-26T00:54:56;16.10;;;11.63;;
66384;SDS011;53426;55.872;37.462;2023-02-26T00:57:21;16.75;;;11.05;;
66384;SDS011;53426;55.872;37.462;2023-02-26T00:59:47;18.15;;;12.35;;
66384;SDS011;53426;55.872;37.462;2023-02-26T01:02:13;20.00;;;12.15;;
66384;SDS011;53426;55.872;37.462;2023-02-26T01:04:39;19.67;;;12.45;;
66384;SDS011;53426;55.872;37.462;2023-02-26T01:07:05;16.67;;;11.07;;
66384;SDS011;53426;55.872;37.462;2023-02-26T01:09:35;16.10;;;11.52;;
66384;SDS011;53426;55.872;37.462;2023-02-26T01:12:03;14.57;;;10.35;;
66384;SDS011;53426;55.872;37.462;2023-02-26T01:14:32;18.23;;;11.60;;
66384;SDS011;53426;55.872;37.462;2023-02-26T01:17:16;12.48;;;9.07;;
66384;SDS011;53426;55.872;37.462;2023-02-26T01:19:51;13.95;;;10.25;;
66384;SDS011;53426;55.872;37.462;2023-02-26T01:22:30;7.10;;;5.75;;
66384;SDS011;53426;55.872;37.462;2023-02-26T01:25:03;13.57;;;9.35;;
66384;SDS011;53426;55.872;37.462;2023-02-26T01:27:49;16.45;;;10.63;;
66384;SDS011;53426;55.872;37.462;2023-02-26T01:30:16;11.05;;;8.07;;
66384;SDS011;53426;55.872;37.462;2023-02-26T01:38:02;10.63;;;8.40;;
66384;SDS011;53426;55.872;37.462;2023-02-26T01:40:34;12.77;;;8.88;;
66384;SDS011;53426;55.872;37.462;2023-02-26T01:43:18;6.80;;;6.10;;
66384;SDS011;53426;55.872;37.462;2023-02-26T01:48:54;10.35;;;6.90;;
66384;SDS011;53426;55.872;37.462;2023-02-26T01:54:30;10.95;;;7.97;;
66384;SDS011;53426;55.872;37.462;2023-02-26T01:59:30;9.60;;;6.55;;
66384;SDS011;53426;55.872;37.462;2023-02-26T02:01:59;8.45;;;6.68;;
66384;SDS011;53426;55.872;37.462;2023-02-26T02:04:28;8.90;;;5.90;;
66384;SDS011;53426;55.872;37.462;2023-02-26T02:06:57;7.20;;;6.10;;
66384;SDS011;53426;55.872;37.462;2023-02-26T02:09:23;7.93;;;6.00;;
66384;SDS011;53426;55.872;37.462;2023-02-26T02:11:52;6.72;;;5.32;;
66384;SDS011;53426;55.872;37.462;2023-02-26T02:17:12;9.40;;;6.05;;
66384;SDS011;53426;55.872;37.462;2023-02-26T02:20:05;6.30;;;5.60;;
66384;SDS011;53426;55.872;37.462;2023-02-26T02:22:59;5.80;;;4.90;;
66384;SDS011;53426;55.872;37.462;2023-02-26T02:25:39;5.60;;;5.10;;
66384;SDS011;53426;55.872;37.462;2023-02-26T02:31:24;7.68;;;6.00;;
66384;SDS011;53426;55.872;37.462;2023-02-26T02:33:57;6.65;;;5.75;;
66384;SDS011;53426;55.872;37.462;2023-02-26T02:36:32;8.48;;;5.63;;
66384;SDS011;53426;55.872;37.462;2023-02-26T02:39:23;9.18;;;6.43;;
66384;SDS011;53426;55.872;37.462;2023-02-26T02:45:04;6.00;;;5.40;;
66384;SDS011;53426;55.872;37.462;2023-02-26T02:47:35;7.07;;;6.38;;
66384;SDS011;53426;55.872;37.462;2023-02-26T02:52:40;10.02;;;6.70;;
66384;SDS011;53426;55.872;37.462;2023-02-26T02:57:40;7.38;;;5.95;;
66384;SDS011;53426;55.872;37.462;2023-02-26T03:00:10;6.53;;;5.78;;
66384;SDS011;53426;55.872;37.462;2023-02-26T03:05:21;8.23;;;6.80;;
66384;SDS011;53426;55.872;37.462;2023-02-26T03:07:49;6.68;;;6.05;;
66384;SDS011;53426;55.872;37.462;2023-02-26T03:10:19;4.00;;;3.67;;
66384;SDS011;53426;55.872;37.462;2023-02-26T03:12:45;5.90;;;5.28;;
66384;SDS011;53426;55.872;37.462;2023-02-26T03:15:11;7.80;;;5.53;;
66384;SDS011;53426;55.872;37.462;2023-02-26T03:20:35;4.65;;;3.85;;
66384;SDS011;53426;55.872;37.462;2023-02-26T03:23:26;6.10;;;5.10;;
66384;SDS011;53426;55.872;37.462;2023-02-26T03:26:02;5.10;;;4.60;;
66384;SDS011;53426;55.872;37.462;2023-02-26T03:28:34;6.05;;;5.45;;
66384;SDS011;53426;55.872;37.462;2023-02-26T03:31:14;8.60;;;5.85;;
66384;SDS011;53426;55.872;37.462;2023-02-26T03:33:46;6.90;;;6.00;;
66384;SDS011;53426;55.872;37.462;2023-02-26T03:36:23;6.07;;;5.47;;
66384;SDS011;53426;55.872;37.462;2023-02-26T03:44:54;7.00;;;5.78;;
66384;SDS011;53426;55.872;37.462;2023-02-26T03:47:22;8.25;;;6.68;;
66384;SDS011;53426;55.872;37.462;2023-02-26T03:50:16;7.07;;;6.10;;
66384;SDS011;53426;55.872;37.462;2023-02-26T03:52:57;7.78;;;6.97;;
66384;SDS011;53426;55.872;37.462;2023-02-26T03:55:43;11.93;;;7.07;;
66384;SDS011;53426;55.872;37.462;2023-02-26T03:58:45;7.45;;;6.75;;
66384;SDS011;53426;55.872;37.462;2023-02-26T04:01:28;9.82;;;7.05;;
66384;SDS011;53426;55.872;37.462;2023-02-26T04:04:06;10.38;;;7.40;;
66384;SDS011;53426;55.872;37.462;2023-02-26T04:06:38;11.25;;;7.75;;
66384;SDS011;53426;55.872;37.462;2023-02-26T04:09:05;12.27;;;7.38;;
66384;SDS011;53426;55.872;37.462;2023-02-26T04:11:33;14.80;;;7.13;;
66384;SDS011;53426;55.872;37.462;2023-02-26T04:14:01;8.85;;;7.40;;
66384;SDS011;53426;55.872;37.462;2023-02-26T04:16:28;9.80;;;6.80;;
66384;SDS011;53426;55.872;37.462;2023-02-26T04:18:55;14.73;;;6.97;;
66384;SDS011;53426;55.872;37.462;2023-02-26T04:21:21;8.43;;;7.50;;
66384;SDS011;53426;55.872;37.462;2023-02-26T04:23:48;8.50;;;7.30;;
66384;SDS011;53426;55.872;37.462;2023-02-26T04:26:14;8.05;;;6.72;;
66384;SDS011;53426;55.872;37.462;2023-02-26T04:28:42;10.45;;;6.20;;
66384;SDS011;53426;55.872;37.462;2023-02-26T04:31:07;8.20;;;5.93;;
66384;SDS011;53426;55.872;37.462;2023-02-26T04:33:34;17.98;;;7.90;;
66384;SDS011;53426;55.872;37.462;2023-02-26T04:36:00;10.38;;;5.97;;
66384;SDS011;53426;55.872;37.462;2023-02-26T04:38:27;5.97;;;5.38;;
66384;SDS011;53426;55.872;37.462;2023-02-26T04:40:53;7.28;;;5.40;;
66384;SDS011;53426;55.872;37.462;2023-02-26T04:43:20;6.13;;;5.53;;
66384;SDS011;53426;55.872;37.462;2023-02-26T04:46:06;15.02;;;6.38;;
66384;SDS011;53426;55.872;37.462;2023-02-26T04:48:34;7.47;;;5.50;;
66384;SDS011;53426;55.872;37.462;2023-02-26T04:51:00;6.05;;;5.43;;
66384;SDS011;53426;55.872;37.462;2023-02-26T04:53:25;8.90;;;5.40;;
66384;SDS011;53426;55.872;37.462;2023-02-26T04:55:51;17.42;;;5.75;;
66384;SDS011;53426;55.872;37.462;2023-02-26T04:58:17;5.18;;;4.20;;
66384;SDS011;53426;55.872;37.462;2023-02-26T05:00:48;5.75;;;5.10;;
66384;SDS011;53426;55.872;37.462;2023-02-26T05:03:15;6.97;;;4.88;;
66384;SDS011;53426;55.872;37.462;2023-02-26T05:05:41;11.05;;;5.43;;
66384;SDS011;53426;55.872;37.462;2023-02-26T05:08:07;12.57;;;4.78;;
66384;SDS011;53426;55.872;37.462;2023-02-26T05:10:33;11.88;;;4.70;;
66384;SDS011;53426;55.872;37.462;2023-02-26T05:12:58;9.00;;;4.10;;
66384;SDS011;53426;55.872;37.462;2023-02-26T05:15:25;9.95;;;3.80;;
66384;SDS011;53426;55.872;37.462;2023-02-26T05:17:51;5.43;;;4.25;;
66384;SDS011;53426;55.872;37.462;2023-02-26T05:20:21;5.15;;;3.47;;
66384;SDS011;53426;55.872;37.462;2023-02-26T05:22:47;4.97;;;3.47;;
66384;SDS011;53426;55.872;37.462;2023-02-26T05:25:13;8.55;;;4.05;;
66384;SDS011;53426;55.872;37.462;2023-02-26T05:27:39;6.03;;;3.42;;
66384;SDS011;53426;55.872;37.462;2023-02-26T05:30:10;8.52;;;3.22;;
66384;SDS011;53426;55.872;37.462;2023-02-26T05:32:39;4.72;;;4.10;;
66384;SDS011;53426;55.872;37.462;2023-02-26T05:35:05;7.57;;;2.90;;
66384;SDS011;53426;55.872;37.462;2023-02-26T05:37:31;2.75;;;2.55;;
66384;SDS011;53426;55.872;37.462;2023-02-26T05:39:57;2.88;;;2.60;;
66384;SDS011;53426;55.872;37.462;2023-02-26T05:42:23;3.03;;;2.72;;
66384;SDS011;53426;55.872;37.462;2023-02-26T05:44:49;4.22;;;2.45;;
66384;SDS011;53426;55.872;37.462;2023-02-26T05:47:15;5.70;;;2.92;;
66384;SDS011;53426;55.872;37.462;2023-02-26T05:49:41;4.38;;;2.70;;
66384;SDS011;53426;55.872;37.462;2023-02-26T05:52:07;4.53;;;3.53;;
66384;SDS011;53426;55.872;37.462;2023-02-26T05:54:33;3.33;;;3.03;;
66384;SDS011;53426;55.872;37.462;2023-02-26T05:56:59;4.32;;;3.13;;
66384;SDS011;53426;55.872;37.462;2023-02-26T05:59:25;3.10;;;2.90;;
66384;SDS011;53426;55.872;37.462;2023-02-26T06:01:51;2.90;;;2.50;;
66384;SDS011;53426;55.872;37.462;2023-02-26T06:04:16;3.10;;;2.55;;
66384;SDS011;53426;55.872;37.462;2023-02-26T06:06:42;8.32;;;3.05;;
66384;SDS011;53426;55.872;37.462;2023-02-26T06:09:08;10.10;;;3.08;;
66384;SDS011;53426;55.872;37.462;2023-02-26T06:11:34;4.28;;;3.03;;
66384;SDS011;53426;55.872;37.462;2023-02-26T06:14:00;3.45;;;2.90;;
66384;SDS011;53426;55.872;37.462;2023-02-26T06:16:26;6.53;;;3.47;;
66384;SDS011;53426;55.872;37.462;2023-02-26T06:18:52;12.52;;;3.00;;
66384;SDS011;53426;55.872;37.462;2023-02-26T06:21:18;3.50;;;2.25;;
66384;SDS011;53426;55.872;37.462;2023-02-26T06:23:43;2.88;;;2.63;;
66384;SDS011;53426;55.872;37.462;2023-02-26T06:26:10;5.32;;;2.60;;
66384;SDS011;53426;55.872;37.462;2023-02-26T06:28:35;3.55;;;2.42;;
66384;SDS011;53426;55.872;37.462;2023-02-26T06:31:01;5.63;;;2.38;;
66384;SDS011;53426;55.872;37.462;2023-02-26T06:33:27;17.20;;;3.40;;
66384;SDS011;53426;55.872;37.462;2023-02-26T06:35:53;3.20;;;2.90;;
66384;SDS011;53426;55.872;37.462;2023-02-26T06:38:20;3.17;;;2.75;;
66384;SDS011;53426;55.872;37.462;2023-02-26T06:40:46;5.70;;;2.97;;
66384;SDS011;53426;55.872;37.462;2023-02-26T06:43:12;11.48;;;7.38;;
66384;SDS011;53426;55.872;37.462;2023-02-26T06:45:38;7.05;;;3.75;;
66384;SDS011;53426;55.872;37.462;2023-02-26T06:48:04;6.85;;;3.00;;
66384;SDS011;53426;55.872;37.462;2023-02-26T06:50:30;3.15;;;2.78;;
66384;SDS011;53426;55.872;37.462;2023-02-26T06:52:56;3.75;;;3.00;;
66384;SDS011;53426;55.872;37.462;2023-02-26T06:55:22;8.32;;;2.92;;
66384;SDS011;53426;55.872;37.462;2023-02-26T06:57:53;6.00;;;3.33;;
66384;SDS011;53426;55.872;37.462;2023-02-26T07:00:20;9.68;;;4.18;;
66384;SDS011;53426;55.872;37.462;2023-02-26T07:02:47;3.90;;;3.17;;
66384;SDS011;53426;55.872;37.462;2023-02-26T07:05:13;4.22;;;3.42;;
66384;SDS011;53426;55.872;37.462;2023-02-26T07:07:39;6.30;;;3.42;;
66384;SDS011;53426;55.872;37.462;2023-02-26T07:10:05;6.55;;;3.70;;
66384;SDS011;53426;55.872;37.462;2023-02-26T07:12:34;6.97;;;3.05;;
66384;SDS011;53426;55.872;37.462;2023-02-26T07:15:03;7.00;;;2.83;;
66384;SDS011;53426;55.872;37.462;2023-02-26T07:17:29;3.67;;;3.38;;
66384;SDS011;53426;55.872;37.462;2023-02-26T07:19:55;3.72;;;3.42;;
66384;SDS011;53426;55.872;37.462;2023-02-26T07:22:21;4.35;;;3.95;;
66384;SDS011;53426;55.872;37.462;2023-02-26T07:24:48;5.63;;;3.60;;
66384;SDS011;53426;55.872;37.462;2023-02-26T07:27:14;4.93;;;3.67;;
66384;SDS011;53426;55.872;37.462;2023-02-26T07:29:40;7.60;;;3.75;;
66384;SDS011;53426;55.872;37.462;2023-02-26T07:32:06;3.92;;;3.53;;
66384;SDS011;53426;55.872;37.462;2023-02-26T07:34:31;4.65;;;3.33;;
66384;SDS011;53426;55.872;37.462;2023-02-26T07:36:57;2.70;;;2.50;;
66384;SDS011;53426;55.872;37.462;2023-02-26T07:39:24;4.80;;;3.53;;
66384;SDS011;53426;55.872;37.462;2023-02-26T07:41:51;7.45;;;3.60;;
66384;SDS011;53426;55.872;37.462;2023-02-26T07:44:17;5.18;;;3.45;;
66384;SDS011;53426;55.872;37.462;2023-02-26T07:46:43;7.07;;;3.10;;
66384;SDS011;53426;55.872;37.462;2023-02-26T07:49:08;4.18;;;3.65;;
66384;SDS011;53426;55.872;37.462;2023-02-26T07:51:34;3.75;;;2.70;;
66384;SDS011;53426;55.872;37.462;2023-02-26T07:54:01;3.10;;;2.90;;
66384;SDS011;53426;55.872;37.462;2023-02-26T07:56:27;3.22;;;2.95;;
66384;SDS011;53426;55.872;37.462;2023-02-26T07:58:53;3.25;;;2.95;;
66384;SDS011;53426;55.872;37.462;2023-02-26T08:01:19;3.17;;;2.78;;
66384;SDS011;53426;55.872;37.462;2023-02-26T08:03:46;4.65;;;3.42;;
66384;SDS011;53426;55.872;37.462;2023-02-26T08:06:12;3.42;;;2.95;;
66384;SDS011;53426;55.872;37.462;2023-02-26T08:08:38;5.55;;;3.00;;
66384;SDS011;53426;55.872;37.462;2023-02-26T08:11:04;9.35;;;3.40;;
66384;SDS011;53426;55.872;37.462;2023-02-26T08:13:30;5.78;;;2.92;;
66384;SDS011;53426;55.872;37.462;2023-02-26T08:15:55;4.43;;;3.60;;
66384;SDS011;53426;55.872;37.462;2023-02-26T08:18:21;10.93;;;2.97;;
66384;SDS011;53426;55.872;37.462;2023-02-26T08:20:49;5.13;;;3.28;;
66384;SDS011;53426;55.872;37.462;2023-02-26T08:23:16;4.55;;;4.10;;
66384;SDS011;53426;55.872;37.462;2023-02-26T08:25:42;2.45;;;2.25;;
66384;SDS011;53426;55.872;37.462;2023-02-26T08:28:10;3.53;;;2.75;;
66384;SDS011;53426;55.872;37.462;2023-02-26T08:30:36;3.83;;;3.08;;
66384;SDS011;53426;55.872;37.462;2023-02-26T08:33:02;6.55;;;2.97;;
66384;SDS011;53426;55.872;37.462;2023-02-26T08:35:31;2.55;;;2.35;;
66384;SDS011;53426;55.872;37.462;2023-02-26T08:37:57;1.98;;;1.88;;
66384;SDS011;53426;55.872;37.462;2023-02-26T08:40:23;4.45;;;2.20;;
66384;SDS011;53426;55.872;37.462;2023-02-26T08:42:48;1.90;;;1.80;;
66384;SDS011;53426;55.872;37.462;2023-02-26T08:45:14;3.05;;;1.73;;
66384;SDS011;53426;55.872;37.462;2023-02-26T08:47:44;3.15;;;1.98;;
66384;SDS011;53426;55.872;37.462;2023-02-26T08:50:10;2.28;;;1.70;;
66384;SDS011;53426;55.872;37.462;2023-02-26T08:52:39;2.83;;;2.28;;
66384;SDS011;53426;55.872;37.462;2023-02-26T08:55:08;1.88;;;1.77;;
66384;SDS011;53426;55.872;37.462;2023-02-26T08:58:03;1.95;;;1.83;;
66384;SDS011;53426;55.872;37.462;2023-02-26T09:00:32;6.57;;;1.95;;
66384;SDS011;53426;55.872;37.462;2023-02-26T09:03:01;4.00;;;2.60;;
66384;SDS011;53426;55.872;37.462;2023-02-26T09:05:43;3.53;;;2.90;;
66384;SDS011;53426;55.872;37.462;2023-02-26T09:09:04;4.20;;;2.13;;
66384;SDS011;53426;55.872;37.462;2023-02-26T09:11:30;2.55;;;2.35;;
66384;SDS011;53426;55.872;37.462;2023-02-26T09:13:57;2.08;;;1.88;;
66384;SDS011;53426;55.872;37.462;2023-02-26T09:16:28;4.07;;;2.10;;
66384;SDS011;53426;55.872;37.462;2023-02-26T09:18:55;5.13;;;2.17;;
66384;SDS011;53426;55.872;37.462;2023-02-26T09:21:23;3.78;;;1.83;;
66384;SDS011;53426;55.872;37.462;2023-02-26T09:23:51;6.40;;;2.30;;
66384;SDS011;53426;55.872;37.462;2023-02-26T09:28:53;9.00;;;2.10;;
66384;SDS011;53426;55.872;37.462;2023-02-26T09:31:21;2.28;;;2.10;;
66384;SDS011;53426;55.872;37.462;2023-02-26T09:33:47;2.10;;;2.00;;
66384;SDS011;53426;55.872;37.462;2023-02-26T09:36:13;4.38;;;2.10;;
66384;SDS011;53426;55.872;37.462;2023-02-26T09:38:40;6.03;;;2.25;;
66384;SDS011;53426;55.872;37.462;2023-02-26T09:41:08;1.98;;;1.88;;
66384;SDS011;53426;55.872;37.462;2023-02-26T09:46:47;2.80;;;2.30;;
66384;SDS011;53426;55.872;37.462;2023-02-26T09:55:11;1.92;;;1.83;;
66384;SDS011;53426;55.872;37.462;2023-02-26T09:57:42;1.90;;;1.80;;
66384;SDS011;53426;55.872;37.462;2023-02-26T10:08:58;1.90;;;1.80;;
66384;SDS011;53426;55.872;37.462;2023-02-26T10:12:13;5.55;;;1.80;;
66384;SDS011;53426;55.872;37.462;2023-02-26T10:14:23;2.85;;;1.63;;
66384;SDS011;53426;55.872;37.462;2023-02-26T10:17:02;1.65;;;1.55;;
66384;SDS011;53426;55.872;37.462;2023-02-26T10:19:39;3.15;;;2.10;;
66384;SDS011;53426;55.872;37.462;2023-02-26T10:24:47;1.70;;;1.60;;
66384;SDS011;53426;55.872;37.462;2023-02-26T10:27:50;2.25;;;1.65;;
66384;SDS011;53426;55.872;37.462;2023-02-26T10:30:27;2.45;;;1.60;;
66384;SDS011;53426;55.872;37.462;2023-02-26T10:35:35;1.80;;;1.70;;
66384;SDS011;53426;55.872;37.462;2023-02-26T10:38:12;8.73;;;2.70;;
66384;SDS011;53426;55.872;37.462;2023-02-26T10:40:49;4.85;;;2.45;;
66384;SDS011;53426;55.872;37.462;2023-02-26T10:43:24;2.80;;;2.22;;
66384;SDS011;53426;55.872;37.462;2023-02-26T10:50:54;2.97;;;2.78;;
66384;SDS011;53426;55.872;37.462;2023-02-26T10:53:57;10.55;;;2.85;;
66384;SDS011;53426;55.872;37.462;2023-02-26T10:56:31;6.20;;;3.20;;
66384;SDS011;53426;55.872;37.462;2023-02-26T10:58:58;4.72;;;2.63;;
66384;SDS011;53426;55.872;37.462;2023-02-26T11:01:26;7.00;;;2.80;;
66384;SDS011;53426;55.872;37.462;2023-02-26T11:03:59;3.70;;;2.20;;
66384;SDS011;53426;55.872;37.462;2023-02-26T11:06:36;4.15;;;2.33;;
66384;SDS011;53426;55.872;37.462;2023-02-26T11:09:04;3.15;;;2.20;;
66384;SDS011;53426;55.872;37.462;2023-02-26T11:11:45;9.27;;;2.53;;
66384;SDS011;53426;55.872;37.462;2023-02-26T11:14:16;2.80;;;2.40;;
66384;SDS011;53426;55.872;37.462;2023-02-26T11:16:45;2.28;;;2.10;;
66384;SDS011;53426;55.872;37.462;2023-02-26T11:19:19;3.72;;;2.67;;
66384;SDS011;53426;55.872;37.462;2023-02-26T11:22:05;2.40;;;2.13;;
66384;SDS011;53426;55.872;37.462;2023-02-26T11:24:41;2.72;;;2.50;;
66384;SDS011;53426;55.872;37.462;2023-02-26T11:27:13;3.20;;;2.63;;
66384;SDS011;53426;55.872;37.462;2023-02-26T11:29:42;3.92;;;2.25;;
66384;SDS011;53426;55.872;37.462;2023-02-26T11:32:19;2.03;;;1.80;;
66384;SDS011;53426;55.872;37.462;2023-02-26T11:37:46;8.20;;;2.05;;
66384;SDS011;53426;55.872;37.462;2023-02-26T11:40:18;1.98;;;1.73;;
66384;SDS011;53426;55.872;37.462;2023-02-26T11:42:51;2.63;;;2.13;;
66384;SDS011;53426;55.872;37.462;2023-02-26T11:45:19;3.33;;;2.20;;
66384;SDS011;53426;55.872;37.462;2023-02-26T11:47:56;3.78;;;2.13;;
66384;SDS011;53426;55.872;37.462;2023-02-26T11:50:26;2.42;;;2.22;;
66384;SDS011;53426;55.872;37.462;2023-02-26T11:52:55;2.72;;;2.53;;
66384;SDS011;53426;55.872;37.462;2023-02-26T11:55:36;12.00;;;2.60;;
66384;SDS011;53426;55.872;37.462;2023-02-26T11:58:19;3.05;;;2.25;;
66384;SDS011;53426;55.872;37.462;2023-02-26T12:00:46;1.80;;;1.70;;
66384;SDS011;53426;55.872;37.462;2023-02-26T12:03:17;2.63;;;2.30;;
66384;SDS011;53426;55.872;37.462;2023-02-26T12:05:45;4.95;;;2.35;;
66384;SDS011;53426;55.872;37.462;2023-02-26T12:19:54;2.55;;;2.35;;
66384;SDS011;53426;55.872;37.462;2023-02-26T12:22:34;2.78;;;2.58;;
66384;SDS011;53426;55.872;37.462;2023-02-26T12:28:24;3.40;;;3.20;;
66384;SDS011;53426;55.872;37.462;2023-02-26T12:34:44;4.13;;;3.50;;
66384;SDS011;53426;55.872;37.462;2023-02-26T13:00:28;5.50;;;3.88;;
66384;SDS011;53426;55.872;37.462;2023-02-26T13:06:33;5.82;;;4.10;;
66384;SDS011;53426;55.872;37.462;2023-02-26T13:21:20;6.22;;;4.72;;
66384;SDS011;53426;55.872;37.462;2023-02-26T13:26:22;6.35;;;5.22;;
66384;SDS011;53426;55.872;37.462;2023-02-26T13:28:58;5.20;;;4.70;;
66384;SDS011;53426;55.872;37.462;2023-02-26T13:31:50;6.80;;;5.32;;
66384;SDS011;53426;55.872;37.462;2023-02-26T13:34:19;6.45;;;5.38;;
66384;SDS011;53426;55.872;37.462;2023-02-26T13:37:01;6.20;;;5.38;;
66384;SDS011;53426;55.872;37.462;2023-02-26T13:42:14;7.13;;;6.40;;
66384;SDS011;53426;55.872;37.462;2023-02-26T13:50:21;10.65;;;6.95;;
66384;SDS011;53426;55.872;37.462;2023-02-26T13:53:32;10.05;;;6.90;;
66384;SDS011;53426;55.872;37.462;2023-02-26T13:59:03;7.95;;;6.28;;
66384;SDS011;53426;55.872;37.462;2023-02-26T14:04:29;10.87;;;6.67;;
66384;SDS011;53426;55.872;37.462;2023-02-26T14:07:10;10.30;;;6.35;;
66384;SDS011;53426;55.872;37.462;2023-02-26T14:17:39;8.98;;;6.80;;
66384;SDS011;53426;55.872;37.462;2023-02-26T14:20:19;7.13;;;6.30;;
66384;SDS011;53426;55.872;37.462;2023-02-26T14:22:51;7.93;;;6.72;;
66384;SDS011;53426;55.872;37.462;2023-02-26T14:25:35;12.95;;;8.18;;
66384;SDS011;53426;55.872;37.462;2023-02-26T14:30:52;9.70;;;7.67;;
66384;SDS011;53426;55.872;37.462;2023-02-26T14:33:45;8.48;;;6.95;;
66384;SDS011;53426;55.872;37.462;2023-02-26T14:36:41;10.50;;;8.32;;
66384;SDS011;53426;55.872;37.462;2023-02-26T14:39:37;13.88;;;8.57;;
66384;SDS011;53426;55.872;37.462;2023-02-26T14:42:50;12.88;;;8.68;;
66384;SDS011;53426;55.872;37.462;2023-02-26T14:45:11;9.23;;;7.28;;
66384;SDS011;53426;55.872;37.462;2023-02-26T14:47:47;10.40;;;8.00;;
66384;SDS011;53426;55.872;37.462;2023-02-26T14:50:18;10.57;;;8.48;;
66384;SDS011;53426;55.872;37.462;2023-02-26T15:09:40;16.08;;;9.85;;
66384;SDS011;53426;55.872;37.462;2023-02-26T15:12:32;13.70;;;9.93;;
66384;SDS011;53426;55.872;37.462;2023-02-26T15:28:28;12.63;;;8.30;;
66384;SDS011;53426;55.872;37.462;2023-02-26T15:36:38;16.58;;;9.80;;
66384;SDS011;53426;55.872;37.462;2023-02-26T15:39:28;14.52;;;9.45;;
66384;SDS011;53426;55.872;37.462;2023-02-26T15:41:54;12.75;;;8.93;;
66384;SDS011;53426;55.872;37.462;2023-02-26T15:44:52;15.48;;;10.27;;
66384;SDS011;53426;55.872;37.462;2023-02-26T15:51:00;12.90;;;9.93;;
66384;SDS011;53426;55.872;37.462;2023-02-26T15:56:21;18.10;;;9.73;;
66384;SDS011;53426;55.872;37.462;2023-02-26T15:58:54;11.65;;;7.85;;
66384;SDS011;53426;55.872;37.462;2023-02-26T16:01:30;14.48;;;9.93;;
66384;SDS011;53426;55.872;37.462;2023-02-26T16:04:01;12.85;;;9.27;;
66384;SDS011;53426;55.872;37.462;2023-02-26T16:06:35;14.73;;;9.98;;
66384;SDS011;53426;55.872;37.462;2023-02-26T16:09:17;12.23;;;8.63;;
66384;SDS011;53426;55.872;37.462;2023-02-26T16:11:57;13.65;;;9.68;;
66384;SDS011;53426;55.872;37.462;2023-02-26T16:14:28;11.32;;;6.50;;
66384;SDS011;53426;55.872;37.462;2023-02-26T16:17:01;9.02;;;7.55;;
66384;SDS011;53426;55.872;37.462;2023-02-26T16:19:40;10.73;;;7.47;;
66384;SDS011;53426;55.872;37.462;2023-02-26T16:27:56;11.43;;;7.85;;
66384;SDS011;53426;55.872;37.462;2023-02-26T16:30:51;9.75;;;7.78;;
66384;SDS011;53426;55.872;37.462;2023-02-26T16:33:20;11.10;;;7.60;;
66384;SDS011;53426;55.872;37.462;2023-02-26T16:35:49;10.07;;;7.85;;
66384;SDS011;53426;55.872;37.462;2023-02-26T16:38:30;11.43;;;7.72;;
66384;SDS011;53426;55.872;37.462;2023-02-26T16:41:20;11.70;;;7.72;;
66384;SDS011;53426;55.872;37.462;2023-02-26T16:43:54;11.73;;;7.32;;
66384;SDS011;53426;55.872;37.462;2023-02-26T16:46:28;8.60;;;7.28;;
66384;SDS011;53426;55.872;37.462;2023-02-26T16:49:19;13.75;;;8.23;;
66384;SDS011;53426;55.872;37.462;2023-02-26T16:51:48;9.32;;;7.07;;
66384;SDS011;53426;55.872;37.462;2023-02-26T16:59:29;8.18;;;6.57;;
66384;SDS011;53426;55.872;37.462;2023-02-26T17:04:50;13.23;;;7.70;;
66384;SDS011;53426;55.872;37.462;2023-02-26T17:09:57;10.57;;;7.80;;
66384;SDS011;53426;55.872;37.462;2023-02-26T17:12:47;10.25;;;8.30;;
66384;SDS011;53426;55.872;37.462;2023-02-26T17:15:15;8.18;;;6.15;;
66384;SDS011;53426;55.872;37.462;2023-02-26T17:17:42;14.48;;;9.30;;
66384;SDS011;53426;55.872;37.462;2023-02-26T17:20:08;9.80;;;8.13;;
66384;SDS011;53426;55.872;37.462;2023-02-26T17:22:35;11.55;;;8.40;;
66384;SDS011;53426;55.872;37.462;2023-02-26T17:25:01;10.30;;;7.75;;
66384;SDS011;53426;55.872;37.462;2023-02-26T17:27:30;9.73;;;6.60;;
66384;SDS011;53426;55.872;37.462;2023-02-26T17:30:02;11.35;;;7.03;;
66384;SDS011;53426;55.872;37.462;2023-02-26T17:32:30;10.02;;;7.82;;
66384;SDS011;53426;55.872;37.462;2023-02-26T17:34:56;11.55;;;8.27;;
66384;SDS011;53426;55.872;37.462;2023-02-26T17:37:29;9.30;;;6.25;;
66384;SDS011;53426;55.872;37.462;2023-02-26T17:40:01;14.13;;;7.10;;
66384;SDS011;53426;55.872;37.462;2023-02-26T17:42:29;9.48;;;7.45;;
66384;SDS011;53426;55.872;37.462;2023-02-26T17:44:55;12.57;;;7.13;;
66384;SDS011;53426;55.872;37.462;2023-02-26T17:47:21;12.65;;;8.20;;
66384;SDS011;53426;55.872;37.462;2023-02-26T17:49:50;16.17;;;8.00;;
66384;SDS011;53426;55.872;37.462;2023-02-26T17:52:17;12.75;;;7.93;;
66384;SDS011;53426;55.872;37.462;2023-02-26T17:54:42;11.63;;;7.22;;
66384;SDS011;53426;55.872;37.462;2023-02-26T17:57:11;17.83;;;7.65;;
66384;SDS011;53426;55.872;37.462;2023-02-26T17:59:41;10.13;;;7.15;;
66384;SDS011;53426;55.872;37.462;2023-02-26T18:02:19;9.43;;;6.40;;
66384;SDS011;53426;55.872;37.462;2023-02-26T18:04:47;6.47;;;5.50;;
66384;SDS011;53426;55.872;37.462;2023-02-26T18:07:14;7.70;;;6.18;;
66384;SDS011;53426;55.872;37.462;2023-02-26T18:09:47;8.45;;;7.18;;
66384;SDS011;53426;55.872;37.462;2023-02-26T18:12:13;10.15;;;6.63;;
66384;SDS011;53426;55.872;37.462;2023-02-26T18:14:43;7.68;;;6.55;;
66384;SDS011;53426;55.872;37.462;2023-02-26T18:17:12;11.40;;;7.00;;
66384;SDS011;53426;55.872;37.462;2023-02-26T18:19:39;11.13;;;7.00;;
66384;SDS011;53426;55.872;37.462;2023-02-26T18:22:12;11.88;;;6.95;;
66384;SDS011;53426;55.872;37.462;2023-02-26T18:24:40;9.50;;;7.03;;
66384;SDS011;53426;55.872;37.462;2023-02-26T18:27:10;10.73;;;6.45;;
66384;SDS011;53426;55.872;37.462;2023-02-26T18:29:39;11.10;;;7.07;;
66384;SDS011;53426;55.872;37.462;2023-02-26T18:32:05;6.80;;;6.10;;
66384;SDS011;53426;55.872;37.462;2023-02-26T18:34:30;13.80;;;6.68;;
66384;SDS011;53426;55.872;37.462;2023-02-26T18:36:57;9.63;;;6.07;;
66384;SDS011;53426;55.872;37.462;2023-02-26T18:39:23;10.68;;;6.78;;
66384;SDS011;53426;55.872;37.462;2023-02-26T18:41:51;8.05;;;6.32;;
66384;SDS011;53426;55.872;37.462;2023-02-26T18:44:17;6.15;;;4.60;;